Time;durP1;ratioP1;P1;durP2;ratioP2;P2;SDS_P1;SDS_P2;PMS_P1;PMS_P2;Temp;Humidity;BMP_temperature;BMP_pressure;BME280_temperature;BME280_humidity;BME280_pressure;Samples;Min_cycle;Max_cycle;Signal;HPM_P1;HPM_P2
2023/09/01 00:00:41;;;;;;;15.27;6.07;;;;;;;13.27;100.00;101124.50;5071588;28;20020;-76
2023/09/01 00:03:08;;;;;;;9.63;4.53;;;;;;;13.25;100.00;101119.28;5073264;28;20035;-76
2023/09/01 00:05:34;;;;;;;8.40;4.85;;;;;;;13.27;100.00;101124.50;5076606;28;20111;-76
2023/09/01 00:07:59;;;;;;;11.20;5.15;;;;;;;13.24;100.00;101111.50;5082901;28;20114;-76
2023/09/01 00:10:25;;;;;;;9.73;4.70;;;;;;;13.26;100.00;101110.28;5077769;28;20024;-76
2023/09/01 00:12:50;;;;;;;8.73;4.13;;;;;;;13.18;100.00;101086.38;5080495;28;20025;-76
2023/09/01 00:15:15;;;;;;;9.98;4.43;;;;;;;13.22;100.00;101097.47;5073999;28;20091;-76
2023/09/01 00:17:41;;;;;;;11.60;4.32;;;;;;;13.18;100.00;101085.50;5083715;28;20057;-76
2023/09/01 00:20:07;;;;;;;8.38;4.72;;;;;;;13.12;100.00;101088.00;5084779;28;20032;-76
2023/09/01 00:22:32;;;;;;;12.45;5.10;;;;;;;13.09;100.00;101080.38;5082546;28;20424;-76
2023/09/01 00:24:58;;;;;;;12.95;4.78;;;;;;;13.14;100.00;101090.47;5086467;28;20063;-76
2023/09/01 00:27:23;;;;;;;10.77;3.70;;;;;;;13.13;100.00;101095.00;5070541;28;20052;-76
2023/09/01 00:29:48;;;;;;;6.57;4.05;;;;;;;13.11;100.00;101096.25;5077622;28;20039;-76
2023/09/01 00:32:14;;;;;;;10.35;5.22;;;;;;;13.11;100.00;101107.78;5081693;28;20043;-76
2023/09/01 00:34:39;;;;;;;9.45;4.25;;;;;;;13.04;100.00;101087.38;5088939;28;20030;-76
2023/09/01 00:37:04;;;;;;;10.00;4.50;;;;;;;13.06;100.00;101098.72;5087006;28;20032;-76
2023/09/01 00:39:30;;;;;;;10.95;5.68;;;;;;;13.00;100.00;101084.31;5087110;28;20119;-76
2023/09/01 00:41:55;;;;;;;10.00;4.43;;;;;;;12.99;100.00;101081.81;5071171;28;20036;-76
2023/09/01 00:44:21;;;;;;;10.45;4.20;;;;;;;13.00;100.00;101080.81;5083379;28;20940;-76
2023/09/01 00:46:46;;;;;;;10.35;4.13;;;;;;;12.97;100.00;101065.16;5089805;28;20036;-76
2023/09/01 00:49:13;;;;;;;11.18;5.10;;;;;;;12.98;100.00;101074.84;5081226;28;20036;-76
2023/09/01 00:51:39;;;;;;;12.07;5.55;;;;;;;12.98;100.00;101081.00;5074364;28;20512;-76
2023/09/01 00:54:05;;;;;;;15.00;5.53;;;;;;;12.94;100.00;101074.41;5087897;28;20119;-76
2023/09/01 00:56:31;;;;;;;10.23;4.47;;;;;;;12.93;100.00;101073.59;5079709;28;20028;-76
2023/09/01 00:58:56;;;;;;;9.35;4.05;;;;;;;12.89;100.00;101058.16;5084111;28;20064;-76
2023/09/01 01:01:22;;;;;;;11.85;4.63;;;;;;;12.91;100.00;101061.44;5083967;28;20063;-76
2023/09/01 01:03:51;;;;;;;9.40;4.93;;;;;;;12.93;100.00;101062.06;5082601;28;20016;-76
2023/09/01 01:06:27;;;;;;;10.15;5.15;;;;;;;12.97;100.00;101074.03;5076084;28;20029;-76
2023/09/01 01:09:10;;;;;;;12.13;5.57;;;;;;;12.99;100.00;101076.47;5080642;28;20036;-76
2023/09/01 01:11:44;;;;;;;12.25;5.60;;;;;;;12.93;100.00;101068.25;5087269;28;20494;-76
2023/09/01 01:14:19;;;;;;;14.38;5.75;;;;;;;12.96;100.00;101080.38;5083295;28;20036;-76
2023/09/01 01:16:44;;;;;;;10.20;4.85;;;;;;;12.92;100.00;101088.03;5081172;28;20110;-76
2023/09/01 01:19:39;;;;;;;9.40;4.70;;;;;;;12.94;100.00;101082.44;5085743;28;20032;-76
2023/09/01 01:22:05;;;;;;;12.73;5.25;;;;;;;12.90;100.00;101087.41;5085864;28;20032;-76
2023/09/01 01:24:33;;;;;;;10.38;5.07;;;;;;;12.88;100.00;101077.91;5077968;28;20043;-76
2023/09/01 01:26:59;;;;;;;17.25;6.60;;;;;;;12.90;100.00;101082.03;5087236;28;20508;-76
2023/09/01 01:29:25;;;;;;;9.70;5.00;;;;;;;12.96;100.00;101092.97;5088131;28;20225;-76
2023/09/01 01:31:52;;;;;;;10.98;5.13;;;;;;;12.88;100.00;101078.75;5077506;28;20503;-75
2023/09/01 01:34:29;;;;;;;14.43;6.43;;;;;;;12.94;100.00;101079.75;5084629;28;20086;-76
2023/09/01 01:37:25;;;;;;;11.93;5.35;;;;;;;12.98;100.00;101082.88;5079344;28;20391;-76
2023/09/01 01:39:53;;;;;;;10.55;4.13;;;;;;;12.97;100.00;101094.59;5072529;28;20039;-76
2023/09/01 01:42:19;;;;;;;13.88;5.50;;;;;;;12.97;100.00;101084.72;5077281;28;21019;-76
2023/09/01 01:44:48;;;;;;;13.35;6.03;;;;;;;12.97;100.00;101082.06;5081299;28;20032;-76
2023/09/01 01:47:15;;;;;;;16.05;5.07;;;;;;;12.93;100.00;101072.78;5091484;28;20024;-76
2023/09/01 01:49:40;;;;;;;12.85;5.72;;;;;;;12.98;100.00;101081.00;5086818;28;20036;-76
2023/09/01 01:52:06;;;;;;;14.13;6.03;;;;;;;13.01;100.00;101085.13;5077866;28;20070;-76
2023/09/01 01:54:32;;;;;;;15.93;6.25;;;;;;;13.06;100.00;101091.50;5088418;28;20125;-76
2023/09/01 01:56:58;;;;;;;12.63;6.38;;;;;;;13.05;100.00;101081.84;5079091;28;20024;-75
2023/09/01 01:59:23;;;;;;;15.00;6.60;;;;;;;13.08;100.00;101080.59;5084454;28;20415;-76
2023/09/01 02:01:49;;;;;;;11.50;5.90;;;;;;;13.08;100.00;101086.78;5085442;28;20035;-76
2023/09/01 02:04:14;;;;;;;16.98;6.35;;;;;;;13.08;100.00;101085.97;5079726;28;20482;-76
2023/09/01 02:06:40;;;;;;;13.68;5.47;;;;;;;13.06;100.00;101077.31;5084908;28;20036;-76
2023/09/01 02:09:09;;;;;;;13.45;6.22;;;;;;;13.07;100.00;101086.97;5080865;28;20051;-76
2023/09/01 02:11:38;;;;;;;13.93;5.93;;;;;;;13.05;100.00;101081.84;5074757;28;20672;-76
2023/09/01 02:14:05;;;;;;;14.55;6.15;;;;;;;13.04;100.00;101074.00;5075341;28;20498;-76
2023/09/01 02:16:30;;;;;;;9.93;5.40;;;;;;;13.04;100.00;101080.16;5084755;28;20059;-76
2023/09/01 02:18:57;;;;;;;13.73;7.00;;;;;;;13.00;100.00;101070.09;5082241;28;20439;-76
2023/09/01 02:21:23;;;;;;;13.07;6.03;;;;;;;13.01;100.00;101079.78;5089256;28;20031;-76
2023/09/01 02:23:49;;;;;;;13.52;6.45;;;;;;;12.98;100.00;101083.69;5074144;28;20094;-76
2023/09/01 02:26:18;;;;;;;11.57;6.05;;;;;;;12.99;100.00;101076.47;5071375;28;20060;-76
2023/09/01 02:28:44;;;;;;;15.63;6.40;;;;;;;12.94;100.00;101074.41;5082544;28;20028;-76
2023/09/01 02:31:10;;;;;;;9.15;5.03;;;;;;;12.96;100.00;101068.88;5079453;28;20034;-76
2023/09/01 02:33:35;;;;;;;9.90;5.18;;;;;;;12.89;100.00;101058.16;5086040;28;20032;-76
2023/09/01 02:36:37;;;;;;;14.65;6.30;;;;;;;12.99;100.00;101079.16;5080198;28;20033;-76
2023/09/01 02:39:06;;;;;;;;;;;;;;;13.04;100.00;101080.16;5079454;28;20027;-76
2023/09/01 02:41:32;;;;;;;13.70;5.78;;;;;;;13.01;100.00;101079.78;5075612;28;19912;-76
2023/09/01 02:43:58;;;;;;;12.85;6.07;;;;;;;13.03;100.00;101078.53;5087958;28;20032;-76
2023/09/01 02:46:24;;;;;;;11.57;5.80;;;;;;;13.04;100.00;101069.47;5072679;28;20481;-76
2023/09/01 02:48:50;;;;;;;15.45;6.90;;;;;;;12.99;100.00;101066.59;5085955;28;20558;-76
2023/09/01 02:51:16;;;;;;;13.00;6.35;;;;;;;13.01;100.00;101063.72;5071716;28;20138;-76
2023/09/01 02:53:42;;;;;;;10.68;6.80;;;;;;;13.01;100.00;101064.53;5079085;28;20093;-76
2023/09/01 02:56:07;;;;;;;16.08;7.05;;;;;;;13.03;100.00;101072.38;5090310;28;20024;-76
2023/09/01 02:58:33;;;;;;;13.25;5.88;;;;;;;13.04;100.00;101076.69;5071239;28;20055;-76
2023/09/01 03:00:58;;;;;;;11.52;5.50;;;;;;;13.00;100.00;101068.25;5085662;28;20093;-76
2023/09/01 03:03:24;;;;;;;12.38;6.75;;;;;;;13.03;100.00;101067.81;5080565;28;20554;-76
2023/09/01 03:05:51;;;;;;;12.30;5.80;;;;;;;13.05;100.00;101064.97;5085046;28;20476;-76
2023/09/01 03:08:20;;;;;;;11.77;5.57;;;;;;;13.07;100.00;101066.41;5086450;28;20495;-76
2023/09/01 03:10:46;;;;;;;15.50;6.43;;;;;;;13.08;100.00;101070.72;5086313;28;20036;-76
2023/09/01 03:13:12;;;;;;;12.70;5.82;;;;;;;13.05;100.00;101062.28;5081909;28;20041;-76
2023/09/01 03:15:40;;;;;;;14.57;6.32;;;;;;;13.14;100.00;101061.00;5086254;28;20051;-76
2023/09/01 03:18:06;;;;;;;15.23;6.30;;;;;;;13.12;100.00;101053.19;5076772;28;20033;-76
2023/09/01 03:20:31;;;;;;;14.45;5.93;;;;;;;13.12;100.00;101033.63;5078294;28;20067;-76
2023/09/01 03:22:56;;;;;;;14.77;6.38;;;;;;;13.13;100.00;101036.09;5090085;28;20107;-76
2023/09/01 03:25:22;;;;;;;14.07;6.45;;;;;;;13.20;100.00;101049.47;5082051;28;20044;-76
2023/09/01 03:27:47;;;;;;;13.13;6.78;;;;;;;13.17;100.00;101049.88;5088711;28;20039;-76
2023/09/01 03:30:13;;;;;;;15.90;6.50;;;;;;;13.25;100.00;101064.91;5089813;28;20040;-76
2023/09/01 03:32:38;;;;;;;12.00;5.93;;;;;;;13.25;100.00;101059.56;5086895;28;20870;-76
2023/09/01 03:35:05;;;;;;;10.90;5.70;;;;;;;13.23;100.00;101051.75;5070342;28;20041;-76
2023/09/01 03:37:31;;;;;;;13.95;5.72;;;;;;;13.26;100.00;101042.47;5086193;28;20032;-76
2023/09/01 03:39:57;;;;;;;15.05;6.38;;;;;;;13.27;100.00;101046.81;5076143;28;20032;-76
2023/09/01 03:42:22;;;;;;;12.80;6.20;;;;;;;13.27;100.00;101052.16;5089482;28;20067;-76
2023/09/01 03:44:48;;;;;;;16.50;6.38;;;;;;;13.34;100.00;101052.97;5079532;28;20032;-76
2023/09/01 03:47:14;;;;;;;12.05;5.72;;;;;;;13.34;100.00;101055.66;5069891;28;20043;-76
2023/09/01 03:49:40;;;;;;;13.65;5.45;;;;;;;13.38;100.00;101040.78;5069913;28;20978;-76
2023/09/01 03:52:06;;;;;;;17.10;7.05;;;;;;;13.37;100.00;101037.31;5086882;28;20051;-76
2023/09/01 03:54:31;;;;;;;10.50;5.63;;;;;;;13.40;100.00;101037.91;5069616;28;20387;-76
2023/09/01 03:56:56;;;;;;;14.65;7.50;;;;;;;13.39;100.00;101047.81;5073358;28;20065;-75
2023/09/01 03:59:22;;;;;;;14.27;5.85;;;;;;;13.41;100.00;101039.56;5069982;28;20028;-75
2023/09/01 04:01:47;;;;;;;11.88;5.05;;;;;;;13.41;100.00;101042.22;5071534;28;20044;-75
2023/09/01 04:04:13;;;;;;;12.90;7.07;;;;;;;13.43;100.00;101038.31;5071333;28;20036;-76
2023/09/01 04:06:42;;;;;;;13.00;6.13;;;;;;;13.37;100.00;101036.50;5073340;28;20035;-76
2023/09/01 04:09:11;;;;;;;11.70;5.80;;;;;;;13.35;100.00;101030.50;5083092;28;20021;-76
2023/09/01 04:11:36;;;;;;;13.93;6.25;;;;;;;13.40;100.00;101033.38;5079162;28;20055;-76
2023/09/01 04:14:02;;;;;;;15.35;5.68;;;;;;;13.44;100.00;101039.13;5070046;28;20130;-76
2023/09/01 04:16:27;;;;;;;14.38;7.00;;;;;;;13.38;100.00;101028.22;5071803;28;20056;-76
2023/09/01 04:18:54;;;;;;;17.58;6.72;;;;;;;13.40;100.00;101030.69;5089201;28;20116;-76
2023/09/01 04:21:20;;;;;;;10.73;5.05;;;;;;;13.30;100.00;101012.38;5079807;28;20027;-76
2023/09/01 04:23:45;;;;;;;11.60;5.72;;;;;;;13.40;100.00;101024.53;5087437;28;20028;-76
2023/09/01 04:26:12;;;;;;;10.95;5.45;;;;;;;13.39;100.00;101031.75;5083438;28;20685;-76
2023/09/01 04:28:37;;;;;;;14.20;5.93;;;;;;;13.40;100.00;101024.53;5085037;28;20162;-76
2023/09/01 04:31:15;;;;;;;8.88;5.28;;;;;;;13.39;100.00;101034.44;5076549;28;20123;-76
2023/09/01 04:33:40;;;;;;;11.20;5.82;;;;;;;13.44;100.00;101031.94;5079015;28;20032;-76
2023/09/01 04:36:06;;;;;;;13.20;6.05;;;;;;;13.47;100.00;101033.38;5071361;28;20077;-76
2023/09/01 04:38:32;;;;;;;11.70;6.05;;;;;;;13.48;100.00;101035.00;5074999;28;20163;-76
2023/09/01 04:40:58;;;;;;;9.57;5.88;;;;;;;13.49;100.00;101029.44;5073030;28;20036;-76
2023/09/01 04:43:28;;;;;;;15.18;7.13;;;;;;;13.50;100.00;101030.25;5082587;28;20039;-76
2023/09/01 04:45:57;;;;;;;11.85;6.22;;;;;;;13.49;100.00;101036.63;5082925;28;20035;-76
2023/09/01 04:48:23;;;;;;;10.98;6.28;;;;;;;13.52;100.00;101041.59;5083466;28;20028;-76
2023/09/01 04:50:48;;;;;;;12.52;6.38;;;;;;;13.53;100.00;101038.69;5073188;28;20032;-76
2023/09/01 04:53:14;;;;;;;14.15;5.72;;;;;;;13.53;100.00;101044.06;5075198;28;20480;-76
2023/09/01 04:55:40;;;;;;;39.72;7.15;;;;;;;13.54;100.00;101052.91;5081077;28;20446;-76
2023/09/01 04:58:06;;;;;;;13.75;6.45;;;;;;;13.56;100.00;101048.97;5074343;28;20103;-76
2023/09/01 05:00:31;;;;;;;14.35;5.40;;;;;;;13.57;100.00;101055.16;5071977;28;20107;-76
2023/09/01 05:02:57;;;;;;;12.32;6.30;;;;;;;13.57;100.00;101050.66;5073286;28;20025;-76
2023/09/01 05:05:22;;;;;;;11.85;5.68;;;;;;;13.59;100.00;101047.75;5083641;28;20387;-76
2023/09/01 05:07:48;;;;;;;17.52;6.97;;;;;;;13.56;100.00;101037.44;5080004;28;20182;-76
2023/09/01 05:10:13;;;;;;;11.50;5.32;;;;;;;13.59;100.00;101027.13;5073867;28;20029;-76
2023/09/01 05:12:38;;;;;;;14.07;6.53;;;;;;;13.61;100.00;101029.59;5078294;28;20036;-76
2023/09/01 05:15:04;;;;;;;13.80;5.93;;;;;;;13.58;100.00;101036.22;5083467;28;20567;-76
2023/09/01 05:17:30;;;;;;;12.00;5.88;;;;;;;13.64;100.00;101031.84;5080805;28;20029;-75
2023/09/01 05:19:56;;;;;;;13.32;6.43;;;;;;;13.62;100.00;101033.91;5081172;28;20356;-76
2023/09/01 05:22:22;;;;;;;12.90;6.63;;;;;;;13.57;100.00;101023.84;5076826;28;20024;-76
2023/09/01 05:24:49;;;;;;;12.05;5.38;;;;;;;13.59;100.00;101034.34;5075995;28;20082;-76
2023/09/01 05:27:14;;;;;;;11.65;6.43;;;;;;;13.65;100.00;101041.56;5039376;28;1095476;-76
2023/09/01 05:29:40;;;;;;;12.80;6.15;;;;;;;13.71;100.00;101039.88;5088104;28;20032;-76
2023/09/01 05:32:05;;;;;;;13.82;5.80;;;;;;;13.68;100.00;101042.97;5070558;28;20391;-76
2023/09/01 05:34:30;;;;;;;14.73;7.00;;;;;;;13.73;100.00;101040.50;5081685;28;20044;-76
2023/09/01 05:36:57;;;;;;;13.25;5.43;;;;;;;13.73;100.00;101038.63;5087524;28;20028;-76
2023/09/01 05:39:23;;;;;;;16.75;7.57;;;;;;;13.78;100.00;101054.91;5090172;28;20044;-76
2023/09/01 05:41:48;;;;;;;15.55;7.13;;;;;;;13.77;100.00;101039.00;5080872;28;20039;-76
2023/09/01 05:44:13;;;;;;;13.52;6.60;;;;;;;13.83;100.00;101043.50;5076800;28;20029;-76
2023/09/01 05:46:39;;;;;;;13.63;5.82;;;;;;;13.87;100.00;101044.75;5082629;28;20024;-76
2023/09/01 05:49:04;;;;;;;11.30;5.85;;;;;;;13.86;100.00;101043.09;5086799;28;20628;-76
2023/09/01 05:51:29;;;;;;;13.13;6.00;;;;;;;13.90;100.00;101044.31;5075185;28;20376;-76
2023/09/01 05:53:55;;;;;;;12.52;6.03;;;;;;;13.95;100.00;101055.22;5077813;28;20142;-76
2023/09/01 05:56:20;;;;;;;14.38;6.43;;;;;;;13.97;100.00;101055.03;5083919;28;20029;-76
2023/09/01 05:58:46;;;;;;;12.77;6.45;;;;;;;13.98;100.00;101052.09;5074481;28;21017;-76
2023/09/01 06:01:12;;;;;;;10.88;6.22;;;;;;;14.01;100.00;101042.81;5074900;28;20094;-76
2023/09/01 06:03:37;;;;;;;10.85;5.97;;;;;;;14.03;100.00;101043.44;5087402;28;20032;-76
2023/09/01 06:06:03;;;;;;;13.70;6.40;;;;;;;14.07;100.00;101046.50;5083249;28;20042;-76
2023/09/01 06:08:28;;;;;;;12.65;6.32;;;;;;;14.04;100.00;101042.38;5079280;28;20471;-76
2023/09/01 06:11:08;;;;;;;16.05;5.75;;;;;;;14.11;100.00;101042.34;5072620;28;20127;-76
2023/09/01 06:13:34;;;;;;;11.30;5.95;;;;;;;14.14;100.00;101045.41;5090190;28;20559;-76
2023/09/01 06:16:02;;;;;;;16.38;6.22;;;;;;;14.20;100.00;101047.25;5089990;28;20119;-76
2023/09/01 06:18:27;;;;;;;12.35;6.47;;;;;;;14.27;100.00;101047.19;5083737;28;20028;-76
2023/09/01 06:20:52;;;;;;;10.75;6.05;;;;;;;14.33;100.00;101051.72;5076682;28;20081;-76
2023/09/01 06:23:18;;;;;;;11.82;6.00;;;;;;;14.37;100.00;101055.59;5077199;28;20620;-76
2023/09/01 06:25:43;;;;;;;9.38;5.90;;;;;;;14.38;100.00;101046.53;5078972;28;20051;-77
2023/09/01 06:28:08;;;;;;;12.07;5.32;;;;;;;14.45;100.00;101055.34;5076398;28;20054;-78
2023/09/01 06:30:35;;;;;;;11.57;6.35;;;;;;;14.48;100.00;101060.25;5080490;28;20024;-76
2023/09/01 06:33:01;;;;;;;12.00;5.72;;;;;;;14.47;100.00;101055.94;5077123;28;20024;-76
2023/09/01 06:35:26;;;;;;;8.65;5.20;;;;;;;14.45;100.00;101055.34;5081963;28;20084;-76
2023/09/01 06:37:51;;;;;;;11.00;5.93;;;;;;;14.48;100.00;101059.44;5084187;28;20987;-76
2023/09/01 06:40:17;;;;;;;12.88;5.68;;;;;;;14.47;100.00;101055.94;5076067;28;20109;-74
2023/09/01 06:42:42;;;;;;;12.23;6.28;;;;;;;14.54;100.00;101052.41;5075409;28;20028;-77
2023/09/01 06:45:08;;;;;;;11.52;5.53;;;;;;;14.54;100.00;101047.88;5080153;28;20032;-78
2023/09/01 06:47:33;;;;;;;10.02;5.80;;;;;;;14.59;100.00;101055.25;5080863;28;20036;-78
2023/09/01 06:49:59;;;;;;;14.02;6.15;;;;;;;14.63;100.00;101053.81;5080113;28;20036;-79
2023/09/01 06:52:24;;;;;;;10.30;5.50;;;;;;;14.62;100.00;101058.34;5079396;28;20498;-78
2023/09/01 06:54:50;;;;;;;11.32;5.70;;;;;;;14.63;100.00;101061.84;5081512;28;20038;-78
2023/09/01 06:57:15;;;;;;;13.13;6.07;;;;;;;14.60;100.00;101062.28;5083337;28;20027;-78
2023/09/01 06:59:41;;;;;;;9.98;6.03;;;;;;;14.59;100.00;101071.38;5079135;28;20463;-78
2023/09/01 07:02:06;;;;;;;13.63;6.30;;;;;;;14.63;100.00;101078.78;5080564;28;20038;-78
2023/09/01 07:04:31;;;;;;;14.93;6.53;;;;;;;14.62;100.00;101076.31;5080197;28;20044;-78
2023/09/01 07:06:57;;;;;;;13.75;6.53;;;;;;;14.68;100.00;101070.06;5080485;28;20032;-78
2023/09/01 07:09:22;;;;;;;11.93;6.60;;;;;;;14.64;100.00;101060.81;5080718;28;20107;-78
2023/09/01 07:11:48;;;;;;;12.13;6.65;;;;;;;14.74;100.00;101061.13;5082064;28;20031;-78
2023/09/01 07:14:13;;;;;;;12.68;5.70;;;;;;;14.77;100.00;101052.63;5079400;28;20094;-78
2023/09/01 07:16:38;;;;;;;13.00;5.95;;;;;;;14.80;100.00;101054.91;5079803;28;20031;-78
2023/09/01 07:19:04;;;;;;;11.68;6.00;;;;;;;14.82;100.00;101044.75;5081177;28;20111;-78
2023/09/01 07:21:29;;;;;;;12.05;6.78;;;;;;;14.83;100.00;101043.72;5080858;28;20036;-77
2023/09/01 07:23:55;;;;;;;13.85;7.70;;;;;;;14.83;100.00;101038.34;5078897;28;21052;-78
2023/09/01 07:26:20;;;;;;;11.35;6.50;;;;;;;14.66;100.00;101015.78;5080147;28;20066;-78
2023/09/01 07:28:45;;;;;;;13.23;6.72;;;;;;;14.82;100.00;101036.69;5084910;28;20024;-77
2023/09/01 07:31:12;;;;;;;13.10;7.15;;;;;;;14.86;100.00;101037.09;5088182;28;20036;-74
2023/09/01 07:33:41;;;;;;;18.73;8.15;;;;;;;14.85;100.00;101046.16;5087615;28;20059;-75
2023/09/01 07:36:09;;;;;;;12.57;6.05;;;;;;;14.78;100.00;101040.06;5087227;28;20036;-78
2023/09/01 07:38:35;;;;;;;16.30;7.53;;;;;;;14.82;100.00;101049.31;5072413;28;20047;-78
2023/09/01 07:41:00;;;;;;;16.23;7.53;;;;;;;14.78;100.00;101035.50;5065720;28;20024;-76
2023/09/01 07:43:26;;;;;;;12.15;6.68;;;;;;;14.81;100.00;101039.63;5075435;28;20118;-71
2023/09/01 07:45:51;;;;;;;16.02;7.50;;;;;;;14.77;100.00;101024.97;5082328;28;20105;-72
2023/09/01 07:48:16;;;;;;;14.75;7.40;;;;;;;14.85;100.00;101038.13;5084711;28;20032;-74
2023/09/01 07:50:42;;;;;;;12.27;7.15;;;;;;;14.87;100.00;101031.47;5071737;28;20460;-71
2023/09/01 07:53:07;;;;;;;12.27;6.00;;;;;;;14.87;100.00;101026.13;5065739;28;20034;-75
2023/09/01 07:55:32;;;;;;;13.82;7.13;;;;;;;14.89;100.00;101028.59;5082612;28;20032;-75
2023/09/01 07:57:59;;;;;;;17.05;7.70;;;;;;;14.88;100.00;101033.16;5083984;28;20039;-72
2023/09/01 08:00:24;;;;;;;12.27;6.47;;;;;;;14.88;100.00;101038.53;5085438;28;20043;-73
2023/09/01 08:02:49;;;;;;;12.95;6.47;;;;;;;14.85;100.00;101035.44;5066907;28;20024;-73
2023/09/01 08:05:15;;;;;;;15.35;8.70;;;;;;;14.81;100.00;101035.06;5066692;28;20519;-72
2023/09/01 08:07:40;;;;;;;17.80;7.22;;;;;;;14.88;100.00;101046.56;5066522;28;20651;-72
2023/09/01 08:10:09;;;;;;;13.70;6.38;;;;;;;14.85;100.00;101038.94;5085469;28;20077;-73
2023/09/01 08:12:34;;;;;;;10.90;6.45;;;;;;;14.90;100.00;101054.38;5085125;28;20039;-73
2023/09/01 08:15:00;;;;;;;12.02;6.75;;;;;;;14.87;100.00;101057.53;5085903;28;20035;-74
2023/09/01 08:17:25;;;;;;;11.60;6.65;;;;;;;14.92;100.00;101056.88;5086428;28;20031;-72
2023/09/01 08:19:51;;;;;;;14.50;7.80;;;;;;;14.91;100.00;101053.38;5074358;28;20636;-75
2023/09/01 08:22:17;;;;;;;13.27;6.72;;;;;;;14.95;100.00;101062.63;5069934;28;20433;-72
2023/09/01 08:24:45;;;;;;;12.65;7.22;;;;;;;15.00;100.00;101062.78;5071109;28;20028;-72
2023/09/01 08:27:11;;;;;;;21.25;9.15;;;;;;;14.98;100.00;101070.22;5071552;28;20097;-73
2023/09/01 08:29:38;;;;;;;17.10;9.18;;;;;;;14.95;100.00;101064.47;5071223;28;20052;-72
2023/09/01 08:32:05;;;;;;;16.85;9.57;;;;;;;15.04;100.00;101068.53;5071546;28;20480;-74
2023/09/01 08:34:31;;;;;;;16.35;8.05;;;;;;;15.07;100.00;101071.59;5071003;28;20031;-71
2023/09/01 08:36:56;;;;;;;15.57;8.57;;;;;;;15.08;100.00;101077.78;5071528;28;20040;-69
2023/09/01 08:39:22;;;;;;;13.90;8.13;;;;;;;15.08;100.00;101081.28;5072117;28;20107;-69
2023/09/01 08:41:49;;;;;;;14.27;8.43;;;;;;;15.05;100.00;101075.53;5069234;28;20478;-69
2023/09/01 08:44:14;;;;;;;14.70;7.88;;;;;;;15.04;100.00;101077.41;5070277;28;20020;-73
2023/09/01 08:46:40;;;;;;;16.90;9.15;;;;;;;15.07;100.00;101076.97;5071967;28;20498;-74
2023/09/01 08:49:07;;;;;;;13.55;7.95;;;;;;;15.09;100.00;101082.09;5070615;28;20078;-72
2023/09/01 08:51:39;;;;;;;13.55;8.35;;;;;;;15.09;100.00;101085.63;5071307;28;20020;-71
2023/09/01 08:54:05;;;;;;;14.40;8.40;;;;;;;15.13;100.00;101083.31;5071435;28;20023;-72
2023/09/01 08:56:32;;;;;;;15.73;8.60;;;;;;;15.13;100.00;101077.94;5070166;28;20047;-71
2023/09/01 08:58:58;;;;;;;17.10;8.25;;;;;;;15.17;100.00;101089.91;5071926;28;20439;-76
2023/09/01 09:01:24;;;;;;;15.68;8.52;;;;;;;15.17;100.00;101091.75;5070897;28;20119;-75
2023/09/01 09:03:49;;;;;;;15.25;8.93;;;;;;;15.19;100.00;101095.03;5070536;28;20032;-73
2023/09/01 09:06:35;;;;;;;16.27;8.93;;;;;;;15.24;100.00;101103.25;5070660;28;20052;-75
2023/09/01 09:09:14;;;;;;;16.30;9.60;;;;;;;15.22;100.00;101091.91;5075887;28;20081;-72
2023/09/01 09:11:39;;;;;;;14.05;7.40;;;;;;;15.22;100.00;101094.59;5074523;28;20478;-73
2023/09/01 09:14:06;;;;;;;13.45;8.13;;;;;;;15.06;100.00;101067.28;5073915;28;20036;-72
2023/09/01 09:16:31;;;;;;;14.27;8.88;;;;;;;15.22;100.00;101094.59;5073882;28;20400;-73
2023/09/01 09:18:57;;;;;;;13.35;7.47;;;;;;;15.25;100.00;101092.31;5072680;28;20027;-73
2023/09/01 09:21:24;;;;;;;13.45;7.70;;;;;;;15.24;100.00;101096.03;5073646;28;20125;-76
2023/09/01 09:23:49;;;;;;;15.50;7.30;;;;;;;15.19;100.00;101095.03;5072008;28;20025;-73
2023/09/01 09:26:15;;;;;;;12.85;8.07;;;;;;;15.22;100.00;101099.97;5087587;28;20062;-73
2023/09/01 09:28:41;;;;;;;13.68;8.48;;;;;;;15.21;100.00;101101.03;5088488;28;20051;-72
2023/09/01 09:31:06;;;;;;;13.15;8.07;;;;;;;15.22;100.00;101099.97;5089468;28;20705;-77
2023/09/01 09:33:38;;;;;;;15.02;8.38;;;;;;;15.24;100.00;101100.59;5078409;28;20037;-77
2023/09/01 09:36:03;;;;;;;17.83;10.23;;;;;;;15.25;100.00;101110.31;5090041;28;20114;-76
2023/09/01 09:38:42;;;;;;;17.27;9.18;;;;;;;15.27;100.00;101110.88;5088102;28;20036;-76
2023/09/01 09:41:08;;;;;;;12.27;7.47;;;;;;;15.23;100.00;101101.63;5083102;28;20139;-76
2023/09/01 09:43:48;;;;;;;16.02;8.77;;;;;;;15.30;100.00;101108.59;5080720;28;20193;-76
2023/09/01 09:46:15;;;;;;;15.05;8.57;;;;;;;15.33;100.00;101112.69;5073995;28;20483;-76
2023/09/01 09:48:42;;;;;;;15.95;8.55;;;;;;;15.36;100.00;101108.75;5087209;28;20028;-76
2023/09/01 09:51:08;;;;;;;13.68;7.18;;;;;;;15.38;100.00;101112.00;5078427;28;20032;-76
2023/09/01 09:53:39;;;;;;;15.63;8.90;;;;;;;15.39;100.00;101109.13;5086160;28;20119;-76
2023/09/01 09:56:19;;;;;;;14.95;8.25;;;;;;;15.44;100.00;101116.53;5070760;28;20024;-76
2023/09/01 09:58:46;;;;;;;12.60;8.13;;;;;;;15.44;100.00;101117.34;5083552;28;20035;-76
2023/09/01 10:01:18;;;;;;;16.88;8.98;;;;;;;15.45;100.00;101115.47;5087711;28;20043;-76
2023/09/01 10:03:44;;;;;;;12.95;7.47;;;;;;;15.42;100.00;101114.03;5088970;28;20076;-76
2023/09/01 10:06:10;;;;;;;13.20;7.55;;;;;;;15.43;100.00;101117.53;5077100;28;20033;-76
2023/09/01 10:08:37;;;;;;;14.35;7.75;;;;;;;15.37;100.00;101107.69;5069842;28;20028;-76
2023/09/01 10:11:03;;;;;;;12.07;7.32;;;;;;;15.43;100.00;101114.84;5084481;28;20027;-76
2023/09/01 10:13:29;;;;;;;12.95;7.80;;;;;;;15.43;100.00;101115.72;5077849;28;20035;-77
2023/09/01 10:15:55;;;;;;;12.25;6.85;;;;;;;15.39;100.00;101102.94;5069759;28;20128;-77
2023/09/01 10:18:21;;;;;;;13.50;7.50;;;;;;;15.49;100.00;101108.63;5083306;28;20539;-77
2023/09/01 10:20:47;;;;;;;11.20;6.40;;;;;;;15.57;100.00;101102.94;5074945;28;20119;-77
2023/09/01 10:23:13;;;;;;;13.45;6.63;;;;;;;15.64;100.00;101098.31;5088793;28;20494;-77
2023/09/01 10:25:38;;;;;;;11.52;6.35;;;;;;;15.69;100.00;101097.66;5082564;28;20147;-77
2023/09/01 10:28:10;;;;;;;11.82;6.70;;;;;;;15.71;100.00;101093.69;5069767;28;20138;-77
2023/09/01 10:30:37;;;;;;;;;;;;;;;15.75;100.00;101102.97;5080304;28;20045;-77
2023/09/01 10:33:08;;;;;;;10.40;6.28;;;;;;;15.72;100.00;101100.75;5070905;28;19955;-77
2023/09/01 10:35:40;;;;;;;9.18;5.90;;;;;;;15.73;100.00;101098.88;5069879;28;20090;-76
2023/09/01 10:38:13;;;;;;;10.20;5.78;;;;;;;15.72;100.00;101103.44;5070828;28;20036;-72
2023/09/01 10:40:40;;;;;;;9.40;5.72;;;;;;;15.67;100.00;101091.66;5087972;28;20024;-71
2023/09/01 10:43:06;;;;;;;11.02;5.78;;;;;;;15.77;100.00;101105.41;5083805;28;20111;-71
2023/09/01 10:45:31;;;;;;;10.48;5.57;;;;;;;15.77;100.00;101106.25;5070320;28;20466;-71
2023/09/01 10:47:57;;;;;;;12.32;6.78;;;;;;;15.84;100.00;101108.03;5069575;28;20040;-72
2023/09/01 10:50:23;;;;;;;10.90;5.85;;;;;;;15.84;100.00;101110.72;5070817;28;20118;-72
2023/09/01 10:53:25;;;;;;;16.02;6.30;;;;;;;15.87;100.00;101113.78;5073384;28;20032;-71
2023/09/01 10:56:08;;;;;;;10.13;5.50;;;;;;;15.89;100.00;101111.69;5069370;28;20509;-72
2023/09/01 10:58:40;;;;;;;13.23;6.70;;;;;;;15.92;100.00;101110.44;5067168;28;20062;-71
2023/09/01 11:01:31;;;;;;;10.93;6.32;;;;;;;15.98;100.00;101112.19;5088014;28;20040;-71
2023/09/01 11:04:16;;;;;;;12.77;6.73;;;;;;;16.03;100.00;101117.72;5088170;28;20035;-71
2023/09/01 11:07:08;;;;;;;11.07;6.63;;;;;;;16.10;100.00;101123.03;5087920;28;20372;-71
2023/09/01 11:09:33;;;;;;;12.02;7.10;;;;;;;16.13;100.00;101120.69;5066843;28;20052;-73